Time;durP1;ratioP1;P1;durP2;ratioP2;P2;SDS_P1;SDS_P2;PMS_P1;PMS_P2;Temp;Humidity;BMP_temperature;BMP_pressure;BME280_temperature;BME280_humidity;BME280_pressure;Samples;Min_cycle;Max_cycle;Signal;HPM_P1;HPM_P2
2021/04/02 00:00:33;;;;;;;12.35;4.22;;;6.50;79.70;;;;;;5072560;28;20464;-75
2021/04/02 00:02:58;;;;;;;10.45;3.47;;;6.40;79.70;;;;;;5071884;28;20091;-75
2021/04/02 00:05:24;;;;;;;14.25;4.20;;;6.40;79.70;;;;;;5070661;28;20093;-75
2021/04/02 00:07:50;;;;;;;13.30;4.05;;;6.40;80.00;;;;;;5070102;28;20048;-74
2021/04/02 00:10:20;;;;;;;16.05;5.10;;;6.30;80.20;;;;;;5071874;28;20028;-75
2021/04/02 00:12:46;;;;;;;16.60;4.45;;;6.30;80.40;;;;;;5071381;28;20024;-75
2021/04/02 00:15:18;;;;;;;10.88;4.22;;;6.20;80.60;;;;;;5070227;28;20037;-75
2021/04/02 00:17:44;;;;;;;17.38;5.03;;;6.20;80.70;;;;;;5070250;28;20111;-75
2021/04/02 00:20:14;;;;;;;12.27;3.85;;;6.20;81.00;;;;;;5070350;28;20108;-75
2021/04/02 00:22:41;;;;;;;10.45;3.22;;;6.10;81.10;;;;;;5071781;28;20017;-76
2021/04/02 00:25:07;;;;;;;14.45;4.03;;;6.10;82.10;;;;;;5071397;28;20028;-74
2021/04/02 00:27:33;;;;;;;21.42;5.63;;;6.10;81.80;;;;;;5070352;28;20019;-75
2021/04/02 00:29:58;;;;;;;12.77;4.57;;;6.10;81.90;;;;;;5071756;28;20103;-75
2021/04/02 00:32:26;;;;;;;14.57;4.47;;;6.00;82.10;;;;;;5075021;28;20020;-75
2021/04/02 00:34:52;;;;;;;12.38;4.00;;;6.00;82.20;;;;;;5073578;28;20024;-76
2021/04/02 00:37:17;;;;;;;12.52;4.50;;;6.00;82.10;;;;;;5075084;28;20025;-76
2021/04/02 00:39:43;;;;;;;20.85;4.50;;;5.90;82.10;;;;;;5074866;28;20020;-75
2021/04/02 00:42:08;;;;;;;20.98;4.63;;;5.90;82.20;;;;;;5073412;28;20017;-76
2021/04/02 00:44:34;;;;;;;9.10;3.22;;;5.90;82.70;;;;;;5075066;28;20017;-75
2021/04/02 00:47:00;;;;;;;15.38;3.97;;;5.80;82.80;;;;;;5074526;28;20058;-75
2021/04/02 00:49:25;;;;;;;16.48;4.97;;;5.80;83.90;;;;;;5073800;28;20020;-76
2021/04/02 00:51:51;;;;;;;11.77;3.80;;;5.80;83.10;;;;;;5073540;28;20111;-76
2021/04/02 00:54:16;;;;;;;11.35;3.13;;;5.80;82.90;;;;;;5073251;28;20036;-76
2021/04/02 00:56:42;;;;;;;12.25;4.35;;;5.70;83.30;;;;;;5074048;28;20032;-75
2021/04/02 00:59:09;;;;;;;13.90;4.13;;;5.70;82.80;;;;;;5072766;28;20024;-75
2021/04/02 01:01:34;;;;;;;13.45;4.70;;;5.70;82.90;;;;;;5072940;28;20020;-75
2021/04/02 01:04:00;;;;;;;9.52;4.40;;;5.60;82.80;;;;;;5074140;28;20453;-74
2021/04/02 01:06:27;;;;;;;8.90;4.82;;;5.60;82.90;;;;;;5074040;28;20127;-75
2021/04/02 01:08:53;;;;;;;15.60;5.30;;;5.50;83.00;;;;;;5072748;28;20039;-75
2021/04/02 01:11:22;;;;;;;8.85;3.88;;;5.50;83.50;;;;;;5073147;28;20475;-75
2021/04/02 01:13:52;;;;;;;13.35;5.00;;;5.50;83.20;;;;;;5074527;28;20060;-74
2021/04/02 01:16:20;;;;;;;13.05;3.92;;;5.50;83.30;;;;;;5073079;28;20048;-75
2021/04/02 01:19:30;;;;;;;17.30;4.82;;;5.50;83.10;;;;;;5073201;28;20067;-75
2021/04/02 01:22:06;;;;;;;13.05;4.45;;;5.40;83.00;;;;;;5054725;28;20020;-74
2021/04/02 01:25:04;;;;;;;12.52;4.70;;;5.40;83.20;;;;;;5070005;28;20050;-75
2021/04/02 01:27:55;;;;;;;15.13;4.38;;;5.30;83.30;;;;;;5072987;28;20356;-75
2021/04/02 01:30:21;;;;;;;14.40;4.53;;;5.30;83.50;;;;;;5074290;28;20047;-74
2021/04/02 01:32:50;;;;;;;13.63;4.20;;;5.30;83.60;;;;;;5072772;28;20020;-75
2021/04/02 01:35:33;;;;;;;13.93;4.25;;;5.20;83.70;;;;;;5072803;28;20165;-75
2021/04/02 01:38:13;;;;;;;14.40;3.85;;;5.20;83.60;;;;;;5073932;28;20020;-76
2021/04/02 01:40:42;;;;;;;9.27;3.40;;;5.20;83.70;;;;;;5072146;28;20449;-76
2021/04/02 01:43:14;;;;;;;9.95;3.35;;;5.20;83.60;;;;;;5072546;28;20456;-76
2021/04/02 01:45:41;;;;;;;11.93;4.05;;;5.20;84.20;;;;;;5072710;28;20017;-75
2021/04/02 01:48:08;;;;;;;8.93;3.50;;;5.10;83.90;;;;;;5072413;28;20452;-76
2021/04/02 01:50:39;;;;;;;12.13;4.03;;;5.10;84.70;;;;;;5072392;28;20098;-76
2021/04/02 01:53:07;;;;;;;12.18;4.25;;;5.10;84.70;;;;;;5073412;28;20024;-75
2021/04/02 01:55:33;;;;;;;10.65;3.05;;;5.10;85.10;;;;;;5072536;28;20027;-75
2021/04/02 01:58:00;;;;;;;8.52;2.85;;;5.10;85.40;;;;;;5073891;28;20099;-75
2021/04/02 02:00:34;;;;;;;12.48;3.55;;;5.10;85.10;;;;;;5072432;28;20043;-75
2021/04/02 02:03:00;;;;;;;13.32;3.80;;;5.10;85.10;;;;;;5073533;28;20048;-75
2021/04/02 02:05:27;;;;;;;16.35;3.53;;;5.10;86.10;;;;;;5072357;28;20026;-74
2021/04/02 02:07:55;;;;;;;8.10;3.30;;;5.10;84.70;;;;;;5071913;28;20128;-75
2021/04/02 02:10:22;;;;;;;9.98;3.33;;;5.10;84.40;;;;;;5072192;28;20044;-75
2021/04/02 02:12:49;;;;;;;11.65;2.95;;;5.10;84.30;;;;;;5072161;28;20175;-76
2021/04/02 02:15:17;;;;;;;11.18;3.55;;;5.10;84.00;;;;;;5071686;28;20467;-75
2021/04/02 02:17:47;;;;;;;9.45;3.80;;;5.10;83.80;;;;;;5071711;28;20017;-76
2021/04/02 02:20:14;;;;;;;7.95;3.67;;;5.00;83.80;;;;;;5071744;28;20457;-75
2021/04/02 02:22:41;;;;;;;7.40;3.40;;;5.00;83.70;;;;;;5072228;28;20335;-74
2021/04/02 02:25:09;;;;;;;11.68;3.60;;;5.00;83.70;;;;;;5072964;28;20013;-75
2021/04/02 02:27:37;;;;;;;13.57;3.83;;;5.00;83.80;;;;;;5073154;28;20017;-75
2021/04/02 02:30:11;;;;;;;10.35;4.10;;;4.90;83.70;;;;;;5073214;28;20047;-76
2021/04/02 02:32:37;;;;;;;10.63;3.58;;;5.00;83.80;;;;;;5071671;28;20017;-75
2021/04/02 02:35:05;;;;;;;7.47;2.85;;;4.90;83.70;;;;;;5072941;28;20024;-75
2021/04/02 02:37:32;;;;;;;10.50;3.22;;;4.90;83.90;;;;;;5072749;28;20111;-75
2021/04/02 02:39:58;;;;;;;10.95;3.38;;;4.90;84.90;;;;;;5071480;28;20174;-75
2021/04/02 02:42:24;;;;;;;10.02;3.45;;;4.90;84.80;;;;;;5071618;28;20521;-76
2021/04/02 02:44:50;;;;;;;12.75;3.83;;;4.80;84.20;;;;;;5071593;28;20099;-76
2021/04/02 02:47:15;;;;;;;12.75;3.90;;;4.80;84.20;;;;;;5071310;28;20453;-75
2021/04/02 02:49:42;;;;;;;9.65;2.75;;;4.80;84.10;;;;;;5071571;28;20028;-75
2021/04/02 02:52:08;;;;;;;10.00;3.35;;;4.80;84.30;;;;;;5071265;28;20044;-75
2021/04/02 02:54:36;;;;;;;11.77;3.30;;;4.80;84.40;;;;;;5071372;28;20024;-76
2021/04/02 02:57:04;;;;;;;12.35;3.97;;;4.80;84.50;;;;;;5072488;28;20020;-76
2021/04/02 02:59:31;;;;;;;16.45;3.45;;;4.80;84.50;;;;;;5071351;28;20017;-75
2021/04/02 03:01:59;;;;;;;10.50;3.78;;;4.80;84.40;;;;;;5071028;28;20016;-75
2021/04/02 03:04:26;;;;;;;8.98;3.20;;;4.80;85.10;;;;;;5071306;28;20506;-75
2021/04/02 03:06:53;;;;;;;10.25;3.25;;;4.80;85.70;;;;;;5072562;28;20079;-76
2021/04/02 03:09:22;;;;;;;10.88;3.63;;;4.80;85.50;;;;;;5070944;28;20120;-76
2021/04/02 03:11:48;;;;;;;7.75;3.47;;;4.80;86.20;;;;;;5071202;28;20021;-76
2021/04/02 03:14:20;;;;;;;14.15;2.65;;;4.80;85.60;;;;;;5070757;28;20039;-76
2021/04/02 03:16:52;;;;;;;11.95;3.90;;;4.80;85.40;;;;;;5071018;28;20017;-76
2021/04/02 03:19:23;;;;;;;7.72;2.85;;;4.80;85.30;;;;;;5070868;28;20028;-76
2021/04/02 03:21:50;;;;;;;12.40;3.38;;;4.80;85.20;;;;;;5071085;28;20016;-76
2021/04/02 03:24:16;;;;;;;8.65;3.05;;;4.80;85.20;;;;;;5070997;28;20031;-76
2021/04/02 03:26:47;;;;;;;12.52;3.30;;;4.80;85.40;;;;;;5071078;28;20027;-75
2021/04/02 03:29:14;;;;;;;5.28;2.42;;;4.80;85.50;;;;;;5070884;28;20020;-75
2021/04/02 03:31:40;;;;;;;13.75;3.10;;;4.80;85.60;;;;;;5072399;28;20071;-74
2021/04/02 03:34:09;;;;;;;11.30;3.30;;;4.80;85.70;;;;;;5071941;28;20035;-76
2021/04/02 03:36:37;;;;;;;10.38;3.92;;;4.70;86.00;;;;;;5070936;28;20012;-75
2021/04/02 03:39:08;;;;;;;8.60;3.13;;;4.80;86.50;;;;;;5071771;28;20021;-76
2021/04/02 03:41:34;;;;;;;14.50;3.70;;;4.80;86.60;;;;;;5070894;28;20032;-75
2021/04/02 03:44:01;;;;;;;8.57;2.80;;;4.80;86.60;;;;;;5070696;28;20020;-75
2021/04/02 03:46:28;;;;;;;8.52;2.95;;;4.80;87.30;;;;;;5070741;28;20021;-76
2021/04/02 03:48:57;;;;;;;8.07;2.63;;;4.80;88.90;;;;;;5072155;28;20017;-76
2021/04/02 03:51:25;;;;;;;9.55;2.70;;;4.80;88.40;;;;;;5070401;28;20024;-74
2021/04/02 03:53:56;;;;;;;8.18;2.70;;;4.90;88.50;;;;;;5070763;28;20107;-76
2021/04/02 03:56:27;;;;;;;11.05;3.25;;;4.90;88.70;;;;;;5070331;28;20016;-75
2021/04/02 03:58:54;;;;;;;6.80;3.30;;;4.90;88.50;;;;;;5070809;28;20012;-76
2021/04/02 04:01:25;;;;;;;10.63;3.80;;;4.90;88.60;;;;;;5070704;28;20024;-76
2021/04/02 04:03:53;;;;;;;12.73;3.63;;;5.00;88.60;;;;;;5072559;28;20445;-75
2021/04/02 04:06:20;;;;;;;13.20;4.03;;;5.00;90.40;;;;;;5075581;28;20119;-76
2021/04/02 04:08:50;;;;;;;9.20;2.75;;;5.10;89.30;;;;;;5074531;28;20074;-75
2021/04/02 04:11:17;;;;;;;10.07;3.92;;;5.10;89.70;;;;;;5074384;28;20371;-76
2021/04/02 04:13:47;;;;;;;12.90;4.30;;;5.20;90.60;;;;;;5075847;28;20115;-76
2021/04/02 04:16:16;;;;;;;7.53;3.13;;;5.20;90.00;;;;;;5074160;28;20033;-76
2021/04/02 04:18:47;;;;;;;15.38;4.28;;;5.20;90.10;;;;;;5075937;28;20021;-77
2021/04/02 04:21:13;;;;;;;8.55;2.95;;;5.20;90.10;;;;;;5075517;28;20008;-76
2021/04/02 04:23:40;;;;;;;9.15;4.18;;;5.20;90.90;;;;;;5074342;28;20021;-75
2021/04/02 04:26:09;;;;;;;11.65;4.50;;;5.20;90.50;;;;;;5074160;28;20021;-76
2021/04/02 04:28:37;;;;;;;20.90;5.00;;;5.10;89.80;;;;;;5075461;28;20021;-77
2021/04/02 04:31:06;;;;;;;13.93;3.42;;;5.20;89.20;;;;;;5075225;28;20047;-76
2021/04/02 04:33:33;;;;;;;13.63;3.38;;;5.10;89.60;;;;;;5075527;28;20026;-76
2021/04/02 04:36:00;;;;;;;16.45;4.82;;;5.10;89.50;;;;;;5074208;28;20028;-77
2021/04/02 04:38:26;;;;;;;13.02;4.60;;;5.10;89.90;;;;;;5075258;28;20031;-77
2021/04/02 04:40:54;;;;;;;12.32;4.15;;;5.10;89.80;;;;;;5073881;28;20106;-77
2021/04/02 04:43:20;;;;;;;11.15;4.18;;;5.10;89.60;;;;;;5073807;28;20024;-75
2021/04/02 04:45:46;;;;;;;11.75;2.63;;;5.10;89.10;;;;;;5073933;28;20020;-76
2021/04/02 04:48:12;;;;;;;13.50;3.92;;;5.10;90.70;;;;;;5073785;28;20103;-76
2021/04/02 04:50:38;;;;;;;11.90;4.30;;;5.10;90.50;;;;;;5073825;28;20520;-75
2021/04/02 04:53:08;;;;;;;8.10;3.83;;;5.10;89.80;;;;;;5073498;28;20027;-76
2021/04/02 04:55:37;;;;;;;11.65;3.70;;;5.10;89.40;;;;;;5073572;28;20031;-77
2021/04/02 04:58:03;;;;;;;9.55;3.45;;;5.10;88.90;;;;;;5074959;28;20016;-76
2021/04/02 05:00:31;;;;;;;8.77;3.58;;;5.10;89.90;;;;;;5073840;28;20046;-76
2021/04/02 05:02:58;;;;;;;11.45;2.78;;;5.10;90.00;;;;;;5073624;28;20016;-76
2021/04/02 05:05:29;;;;;;;7.55;2.85;;;5.10;90.40;;;;;;5073408;28;20040;-77
2021/04/02 05:07:57;;;;;;;17.08;3.72;;;5.10;90.10;;;;;;5074508;28;20079;-77
2021/04/02 05:10:23;;;;;;;9.77;2.75;;;5.10;90.00;;;;;;5073240;28;20051;-76
2021/04/02 05:12:51;;;;;;;13.15;3.58;;;5.00;89.90;;;;;;5074613;28;20457;-76
2021/04/02 05:15:19;;;;;;;12.35;4.75;;;5.10;89.70;;;;;;5073796;28;20036;-77
2021/04/02 05:17:45;;;;;;;10.90;4.55;;;5.10;90.20;;;;;;5072837;28;20472;-76
2021/04/02 05:20:12;;;;;;;12.63;3.45;;;5.10;90.50;;;;;;5074296;28;20016;-77
2021/04/02 05:22:37;;;;;;;10.38;4.10;;;5.10;90.80;;;;;;5073335;28;20017;-77
2021/04/02 05:25:06;;;;;;;6.93;2.42;;;5.10;90.30;;;;;;5074791;28;20026;-77
2021/04/02 05:27:32;;;;;;;11.40;3.35;;;5.10;90.40;;;;;;5073296;28;20341;-78
2021/04/02 05:29:58;;;;;;;10.00;3.72;;;5.10;90.20;;;;;;5073534;28;20476;-78
2021/04/02 05:32:23;;;;;;;11.80;3.75;;;5.10;89.50;;;;;;5074247;28;20052;-77
2021/04/02 05:34:49;;;;;;;12.98;3.72;;;5.10;88.80;;;;;;5074308;28;20028;-77
2021/04/02 05:37:14;;;;;;;9.20;3.55;;;5.20;90.10;;;;;;5072790;28;20020;-77
2021/04/02 05:39:40;;;;;;;11.23;3.72;;;5.20;89.60;;;;;;5073070;28;20027;-77
2021/04/02 05:42:07;;;;;;;11.35;3.72;;;5.20;89.30;;;;;;5072776;28;20093;-76
2021/04/02 05:44:35;;;;;;;16.63;4.38;;;5.20;88.60;;;;;;5072891;28;20024;-77
2021/04/02 05:47:07;;;;;;;13.50;4.30;;;5.20;88.40;;;;;;5074185;28;20020;-78
2021/04/02 05:49:33;;;;;;;11.05;3.97;;;5.30;88.60;;;;;;5072839;28;20021;-76
2021/04/02 05:51:59;;;;;;;14.65;3.90;;;5.30;87.90;;;;;;5072667;28;20016;-76
2021/04/02 05:54:36;;;;;;;12.70;3.38;;;5.40;87.80;;;;;;5073815;28;20103;-76
2021/04/02 05:57:02;;;;;;;14.73;4.05;;;5.40;87.70;;;;;;5073914;28;20102;-76
2021/04/02 05:59:28;;;;;;;14.32;3.63;;;5.40;87.20;;;;;;5074080;28;20068;-77
2021/04/02 06:01:55;;;;;;;26.92;11.05;;;5.50;86.60;;;;;;5072628;28;20020;-77
2021/04/02 06:04:21;;;;;;;15.65;6.95;;;5.50;87.30;;;;;;5073861;28;20056;-77
2021/04/02 06:06:47;;;;;;;20.83;7.10;;;5.60;86.20;;;;;;5073289;28;20048;-77
2021/04/02 06:09:14;;;;;;;12.90;4.55;;;5.60;86.00;;;;;;5072045;28;20020;-77
2021/04/02 06:11:40;;;;;;;19.60;4.97;;;5.70;87.60;;;;;;5072304;28;20067;-77
2021/04/02 06:14:06;;;;;;;14.35;4.00;;;5.80;88.60;;;;;;5073369;28;20054;-77
2021/04/02 06:16:32;;;;;;;14.07;4.28;;;5.80;87.00;;;;;;5071979;28;20495;-77
2021/04/02 06:19:05;;;;;;;18.50;7.78;;;5.90;85.40;;;;;;5073741;28;20501;-77
2021/04/02 06:21:31;;;;;;;20.35;7.20;;;6.00;84.30;;;;;;5071942;28;20031;-78
2021/04/02 06:23:57;;;;;;;14.93;6.25;;;6.10;85.10;;;;;;5072105;28;20021;-77
2021/04/02 06:26:22;;;;;;;15.45;4.45;;;6.10;83.40;;;;;;5071759;28;20020;-76
2021/04/02 06:28:48;;;;;;;12.25;4.40;;;6.30;83.60;;;;;;5073489;28;20054;-77
2021/04/02 06:31:16;;;;;;;13.15;4.53;;;6.30;82.50;;;;;;5071110;28;20349;-79
2021/04/02 06:33:50;;;;;;;13.93;5.05;;;6.40;82.80;;;;;;5054737;28;20032;-78
2021/04/02 06:36:23;;;;;;;14.25;3.50;;;6.50;81.50;;;;;;5058868;28;20075;-78
2021/04/02 06:38:50;;;;;;;12.45;3.58;;;6.60;81.60;;;;;;5061054;28;20009;-78
2021/04/02 06:41:17;;;;;;;13.02;3.65;;;6.70;81.20;;;;;;5061057;28;20432;-77
2021/04/02 06:43:45;;;;;;;13.88;2.60;;;6.80;82.20;;;;;;5059292;28;20028;-78
2021/04/02 06:46:37;;;;;;;6.43;2.05;;;6.80;80.60;;;;;;5062721;28;20059;-77
2021/04/02 06:49:13;;;;;;;13.38;2.42;;;7.00;85.90;;;;;;5060464;28;20071;-78
2021/04/02 06:51:45;;;;;;;13.50;3.83;;;7.20;80.50;;;;;;5051599;28;20112;-78
2021/04/02 06:54:13;;;;;;;11.50;3.00;;;7.30;80.20;;;;;;5051070;28;20461;-79
2021/04/02 06:56:44;;;;;;;17.65;3.35;;;7.40;78.50;;;;;;5052875;28;20021;-78
2021/04/02 06:59:16;;;;;;;8.77;2.83;;;7.60;79.20;;;;;;5052034;28;20017;-78
2021/04/02 07:01:43;;;;;;;10.30;2.70;;;7.70;80.70;;;;;;5052175;28;20067;-78
2021/04/02 07:04:11;;;;;;;7.25;2.00;;;7.80;82.80;;;;;;5051974;28;20028;-78
2021/04/02 07:06:38;;;;;;;12.57;2.50;;;8.00;80.80;;;;;;5051279;28;20040;-78
2021/04/02 07:09:08;;;;;;;7.25;2.38;;;8.00;76.20;;;;;;5050916;28;20124;-79
2021/04/02 07:11:34;;;;;;;;;;;8.10;79.60;;;;;;5052619;28;20594;-79
2021/04/02 07:14:01;;;;;;;15.57;2.92;;;8.20;76.70;;;;;;5051002;28;19911;-79
2021/04/02 07:16:30;;;;;;;12.70;2.47;;;8.40;76.20;;;;;;5058566;28;20031;-78
2021/04/02 07:18:57;;;;;;;8.05;1.48;;;8.50;75.70;;;;;;5072111;28;20024;-79
2021/04/02 07:21:23;;;;;;;18.48;2.53;;;8.60;79.50;;;;;;5070469;28;20012;-77
2021/04/02 07:23:49;;;;;;;14.50;3.80;;;8.80;77.10;;;;;;5071946;28;20024;-79
2021/04/02 07:26:15;;;;;;;10.13;2.58;;;8.90;74.10;;;;;;5070716;28;20158;-78
2021/04/02 07:28:43;;;;;;;8.90;2.63;;;9.10;75.10;;;;;;5070956;28;20495;-78
2021/04/02 07:31:10;;;;;;;11.15;2.05;;;9.30;75.90;;;;;;5072544;28;20080;-78
2021/04/02 07:33:37;;;;;;;8.25;1.65;;;9.50;76.50;;;;;;5061082;28;20036;-77
2021/04/02 07:36:05;;;;;;;12.52;2.13;;;9.60;73.80;;;;;;5050757;28;20036;-79
2021/04/02 07:38:35;;;;;;;10.77;1.88;;;9.80;76.30;;;;;;5049719;28;20079;-78
2021/04/02 07:41:15;;;;;;;10.93;2.20;;;9.70;72.10;;;;;;5050206;28;20405;-78
2021/04/02 07:43:44;;;;;;;16.20;2.90;;;9.70;70.00;;;;;;5051948;28;20043;-78
2021/04/02 07:46:16;;;;;;;14.15;2.65;;;9.80;69.80;;;;;;5051593;28;20029;-78
2021/04/02 07:48:46;;;;;;;9.20;1.88;;;10.00;66.90;;;;;;5050500;28;20021;-77
2021/04/02 07:51:12;;;;;;;9.45;2.17;;;10.30;69.80;;;;;;5050338;28;20017;-77
2021/04/02 07:53:39;;;;;;;12.25;1.52;;;10.40;65.70;;;;;;5050586;28;20182;-78
2021/04/02 07:56:16;;;;;;;11.73;2.72;;;10.60;70.70;;;;;;5050300;28;20021;-78
2021/04/02 07:58:52;;;;;;;7.45;1.70;;;10.70;68.30;;;;;;5051728;28;20023;-78
2021/04/02 08:01:20;;;;;;;14.32;2.65;;;10.60;66.60;;;;;;5050274;28;20020;-77
2021/04/02 08:03:47;;;;;;;7.13;1.75;;;10.40;61.00;;;;;;5050317;28;20056;-76
2021/04/02 08:06:33;;;;;;;8.48;2.40;;;10.20;67.50;;;;;;5049838;28;20091;-77
2021/04/02 08:09:01;;;;;;;25.60;10.35;;;10.00;67.10;;;;;;5050494;28;20017;-78
2021/04/02 08:11:31;;;;;;;8.75;3.10;;;9.80;68.10;;;;;;5049943;28;20032;-77
2021/04/02 08:13:58;;;;;;;7.22;2.10;;;9.80;64.90;;;;;;5050005;28;20028;-77
2021/04/02 08:16:38;;;;;;;8.80;3.15;;;9.70;68.00;;;;;;5049880;28;20098;-76
2021/04/02 08:19:05;;;;;;;13.25;2.90;;;9.70;63.90;;;;;;5050277;28;20021;-78
2021/04/02 08:21:35;;;;;;;9.80;2.00;;;9.60;72.80;;;;;;5049666;28;20024;-78
2021/04/02 08:24:02;;;;;;;;;;;9.60;73.30;;;;;;5050664;28;20017;-79
2021/04/02 08:26:32;;;;;;;8.18;1.88;;;9.60;69.50;;;;;;5049932;28;20050;-79
2021/04/02 08:29:03;;;;;;;9.48;2.08;;;9.50;72.30;;;;;;5050144;28;20013;-78
2021/04/02 08:31:29;;;;;;;21.70;3.70;;;9.50;76.90;;;;;;5049994;28;20017;-75
2021/04/02 08:33:58;;;;;;;11.10;2.53;;;9.40;74.30;;;;;;5050068;28;20120;-76
2021/04/02 08:36:25;;;;;;;8.98;2.97;;;9.40;65.70;;;;;;5049917;28;20032;-79
2021/04/02 08:38:52;;;;;;;11.90;2.97;;;9.50;68.70;;;;;;5051545;28;20013;-78
2021/04/02 08:41:26;;;;;;;6.93;1.70;;;9.50;63.80;;;;;;5049850;28;20040;-78
2021/04/02 08:43:53;;;;;;;9.32;2.47;;;9.70;73.20;;;;;;5050176;28;20346;-78
2021/04/02 08:46:32;;;;;;;7.00;1.83;;;9.70;65.90;;;;;;5049894;28;20392;-78
2021/04/02 08:48:58;;;;;;;9.13;1.90;;;9.80;74.30;;;;;;5049915;28;20024;-78
2021/04/02 08:51:24;;;;;;;9.13;2.83;;;9.90;72.10;;;;;;5052391;28;20017;-78
2021/04/02 08:53:49;;;;;;;9.70;2.53;;;9.90;65.70;;;;;;5054959;28;20473;-79
2021/04/02 08:56:22;;;;;;;11.73;3.58;;;10.00;66.80;;;;;;5054468;28;20457;-78
2021/04/02 08:58:49;;;;;;;10.23;2.42;;;10.10;63.40;;;;;;5053584;28;20013;-79
2021/04/02 09:01:17;;;;;;;180.07;85.88;;;10.00;60.30;;;;;;5053252;28;20016;-78
2021/04/02 09:03:44;;;;;;;16.80;6.18;;;10.00;68.20;;;;;;5053327;28;20025;-78
2021/04/02 09:06:11;;;;;;;10.18;3.63;;;10.00;60.90;;;;;;5052767;28;20037;-78
2021/04/02 09:08:37;;;;;;;9.30;2.75;;;10.00;64.80;;;;;;5054803;28;20462;-77
2021/04/02 09:11:12;;;;;;;10.30;2.42;;;9.90;71.60;;;;;;5054765;28;20029;-77
2021/04/02 09:13:38;;;;;;;16.60;3.88;;;9.70;64.60;;;;;;5053082;28;20021;-77
2021/04/02 09:16:06;;;;;;;9.98;3.72;;;9.80;61.60;;;;;;5054203;28;20473;-78
2021/04/02 09:18:32;;;;;;;7.72;2.95;;;9.70;61.20;;;;;;5052835;28;20021;-76
2021/04/02 09:20:59;;;;;;;9.43;3.33;;;9.80;62.30;;;;;;5052799;28;20029;-76
2021/04/02 09:23:25;;;;;;;8.50;2.70;;;9.80;64.90;;;;;;5054210;28;20361;-77
2021/04/02 09:25:52;;;;;;;7.45;2.58;;;9.70;70.60;;;;;;5052893;28;20023;-77
2021/04/02 09:28:23;;;;;;;13.18;3.13;;;9.50;67.30;;;;;;5052666;28;20064;-77
2021/04/02 09:30:49;;;;;;;11.30;3.17;;;9.40;63.00;;;;;;5052760;28;20027;-76
2021/04/02 09:33:19;;;;;;;7.40;2.47;;;9.30;62.80;;;;;;5052437;28;20025;-77
2021/04/02 09:35:46;;;;;;;12.05;2.97;;;9.40;74.40;;;;;;5054007;28;20021;-77
2021/04/02 09:38:12;;;;;;;12.52;3.25;;;9.30;65.90;;;;;;5052561;28;20016;-76
2021/04/02 09:40:41;;;;;;;13.80;3.85;;;9.40;72.50;;;;;;5052633;28;20380;-77
2021/04/02 09:43:07;;;;;;;11.13;4.10;;;9.50;64.30;;;;;;5052663;28;20075;-77
2021/04/02 09:45:34;;;;;;;8.88;3.42;;;9.50;68.40;;;;;;5053925;28;20052;-76
2021/04/02 09:47:59;;;;;;;13.45;3.60;;;9.60;76.70;;;;;;5052445;28;20021;-76
2021/04/02 09:50:25;;;;;;;13.52;5.90;;;9.50;72.90;;;;;;5053528;28;20027;-77
2021/04/02 09:52:51;;;;;;;11.07;4.57;;;9.50;64.60;;;;;;5052372;28;20063;-75
2021/04/02 09:55:17;;;;;;;7.60;3.03;;;9.40;62.30;;;;;;5053603;28;20162;-75
2021/04/02 09:57:43;;;;;;;13.38;4.93;;;9.60;70.10;;;;;;5052481;28;20025;-77
2021/04/02 10:00:10;;;;;;;18.02;5.88;;;9.50;62.40;;;;;;5052281;28;20091;-77
2021/04/02 10:02:37;;;;;;;14.30;3.65;;;9.50;63.60;;;;;;5053123;28;20013;-76
2021/04/02 10:05:04;;;;;;;7.88;3.50;;;9.60;64.20;;;;;;5052309;28;20064;-77
2021/04/02 10:07:30;;;;;;;7.80;3.50;;;9.70;69.00;;;;;;5051489;28;20033;-77
2021/04/02 10:09:55;;;;;;;15.95;3.95;;;9.80;65.90;;;;;;5052146;28;20025;-76
2021/04/02 10:12:21;;;;;;;8.52;2.72;;;9.70;64.20;;;;;;5051875;28;20115;-77
2021/04/02 10:14:48;;;;;;;9.43;2.85;;;9.90;72.70;;;;;;5051961;28;20037;-77
2021/04/02 10:17:15;;;;;;;7.97;2.55;;;10.00;69.80;;;;;;5052632;28;20128;-76
2021/04/02 10:19:41;;;;;;;5.28;1.92;;;10.10;67.00;;;;;;5053194;28;20017;-77
2021/04/02 10:22:07;;;;;;;10.70;2.30;;;10.40;74.40;;;;;;5051967;28;20111;-77
2021/04/02 10:24:32;;;;;;;7.97;2.45;;;10.40;67.50;;;;;;5051778;28;20549;-77
2021/04/02 10:26:59;;;;;;;8.25;2.50;;;10.50;67.60;;;;;;5051960;28;20017;-75
2021/04/02 10:29:28;;;;;;;8.18;2.03;;;10.70;67.20;;;;;;5051560;28;20024;-77
2021/04/02 10:31:54;;;;;;;13.10;2.60;;;10.90;62.30;;;;;;5053254;28;20017;-77
2021/04/02 10:34:20;;;;;;;12.90;2.47;;;11.10;56.90;;;;;;5051681;28;20120;-77
2021/04/02 10:36:45;;;;;;;9.43;2.70;;;11.30;56.30;;;;;;5052007;28;20124;-77
2021/04/02 10:39:11;;;;;;;10.13;2.45;;;11.40;57.20;;;;;;5051668;28;20067;-75
2021/04/02 10:41:40;;;;;;;8.25;1.98;;;11.50;60.30;;;;;;5051750;28;20458;-77
2021/04/02 10:44:06;;;;;;;11.55;2.40;;;11.40;61.60;;;;;;5051752;28;20488;-77
2021/04/02 10:46:32;;;;;;;10.32;1.80;;;11.40;62.40;;;;;;5051457;28;20108;-77
2021/04/02 10:48:58;;;;;;;8.60;2.08;;;11.60;65.50;;;;;;5051985;28;20052;-78
2021/04/02 10:51:25;;;;;;;14.63;3.08;;;11.70;68.20;;;;;;5051870;28;20013;-76
2021/04/02 10:53:52;;;;;;;10.95;2.75;;;11.90;55.10;;;;;;5051779;28;20063;-78
2021/04/02 10:56:17;;;;;;;12.10;2.53;;;12.10;54.20;;;;;;5051446;28;20020;-78
2021/04/02 10:58:43;;;;;;;12.85;2.55;;;12.10;58.00;;;;;;5051937;28;20425;-78
2021/04/02 11:01:11;;;;;;;11.18;2.55;;;11.90;55.70;;;;;;5051541;28;20017;-78
2021/04/02 11:03:37;;;;;;;9.63;1.88;;;11.90;52.90;;;;;;5051456;28;20091;-78
2021/04/02 11:06:02;;;;;;;14.15;2.58;;;12.10;63.90;;;;;;5051081;28;20121;-77
2021/04/02 11:08:28;;;;;;;7.57;2.20;;;12.30;58.60;;;;;;5052462;28;20350;-78
2021/04/02 11:10:54;;;;;;;6.60;1.75;;;12.50;60.70;;;;;;5051590;28;20024;-79
2021/04/02 11:13:19;;;;;;;7.00;1.48;;;12.70;65.20;;;;;;5052249;28;20048;-77
2021/04/02 11:15:45;;;;;;;9.93;2.30;;;12.80;62.70;;;;;;5051854;28;20021;-77
2021/04/02 11:18:10;;;;;;;11.30;2.00;;;12.90;61.80;;;;;;5071108;28;20021;-77
2021/04/02 11:20:36;;;;;;;8.75;2.38;;;13.00;59.00;;;;;;5072395;28;20424;-77
2021/04/02 11:23:01;;;;;;;7.38;1.65;;;12.90;59.00;;;;;;5071972;28;20013;-78
2021/04/02 11:25:27;;;;;;;8.45;1.80;;;12.70;65.10;;;;;;5072571;28;20016;-77
2021/04/02 11:27:53;;;;;;;13.70;3.15;;;12.50;58.20;;;;;;5072949;28;20025;-75
2021/04/02 11:30:21;;;;;;;9.77;3.47;;;12.40;60.50;;;;;;5072008;28;20070;-72
2021/04/02 11:32:47;;;;;;;9.57;2.67;;;12.40;54.70;;;;;;5072270;28;20017;-73
2021/04/02 11:35:13;;;;;;;11.88;2.28;;;12.30;54.60;;;;;;5070638;28;20029;-75
2021/04/02 11:37:40;;;;;;;11.80;2.85;;;12.10;54.50;;;;;;5070934;28;20479;-76
2021/04/02 11:40:09;;;;;;;14.02;2.53;;;12.00;63.60;;;;;;5072226;28;20357;-74
2021/04/02 11:42:34;;;;;;;11.25;2.70;;;12.30;58.80;;;;;;5071933;28;20051;-75
2021/04/02 11:45:01;;;;;;;5.93;1.63;;;12.50;60.50;;;;;;5072395;28;20063;-73
2021/04/02 11:47:26;;;;;;;9.35;2.13;;;12.90;67.70;;;;;;5070747;28;20444;-74
2021/04/02 11:49:52;;;;;;;8.57;2.42;;;13.00;59.40;;;;;;5070652;28;20028;-75
2021/04/02 11:52:17;;;;;;;11.43;2.63;;;12.90;57.10;;;;;;5070683;28;20013;-74
2021/04/02 11:54:43;;;;;;;10.70;1.98;;;12.70;51.50;;;;;;5072002;28;20032;-74
2021/04/02 11:57:09;;;;;;;5.13;1.75;;;12.70;53.90;;;;;;5070706;28;20017;-74
2021/04/02 11:59:34;;;;;;;11.38;2.28;;;12.90;59.90;;;;;;5070529;28;20032;-75
2021/04/02 12:02:00;;;;;;;14.50;2.95;;;12.90;53.40;;;;;;5070805;28;20020;-75
2021/04/02 12:04:25;;;;;;;10.07;2.30;;;13.00;54.20;;;;;;5070433;28;20488;-75
2021/04/02 12:06:51;;;;;;;7.47;1.73;;;12.90;55.20;;;;;;5071801;28;20041;-75
2021/04/02 12:09:17;;;;;;;13.35;2.03;;;12.80;61.60;;;;;;5071355;28;20052;-74
2021/04/02 12:11:42;;;;;;;9.57;2.17;;;12.70;62.00;;;;;;5070307;28;20366;-75
2021/04/02 12:14:08;;;;;;;6.97;1.73;;;12.70;65.90;;;;;;5070420;28;20063;-74
2021/04/02 12:16:35;;;;;;;10.82;1.52;;;12.70;66.30;;;;;;5064030;28;20024;-75
2021/04/02 12:19:02;;;;;;;13.35;3.33;;;12.50;69.60;;;;;;5050594;28;20039;-75
2021/04/02 12:21:28;;;;;;;10.85;2.28;;;12.50;59.80;;;;;;5050405;28;20048;-74
2021/04/02 12:23:54;;;;;;;4.78;1.85;;;12.60;56.10;;;;;;5050256;28;20635;-74
2021/04/02 12:26:19;;;;;;;10.50;2.55;;;12.60;67.10;;;;;;5052853;28;20017;-74
2021/04/02 12:28:45;;;;;;;11.75;2.20;;;12.50;62.90;;;;;;5054317;28;20013;-74
2021/04/02 12:31:11;;;;;;;7.85;1.50;;;12.30;60.40;;;;;;5054169;28;20025;-74
2021/04/02 12:33:36;;;;;;;5.85;1.27;;;12.20;61.50;;;;;;5053977;28;20025;-76
2021/04/02 12:36:02;;;;;;;9.43;2.03;;;12.10;70.90;;;;;;5054174;28;20025;-76
2021/04/02 12:38:28;;;;;;;5.95;1.55;;;12.20;70.10;;;;;;5054971;28;20040;-76
2021/04/02 12:40:54;;;;;;;4.72;1.35;;;12.10;68.60;;;;;;5055454;28;20045;-74
2021/04/02 12:43:19;;;;;;;7.10;1.35;;;12.20;71.50;;;;;;5053683;28;20084;-76
2021/04/02 12:45:45;;;;;;;8.63;2.25;;;12.20;68.50;;;;;;5054010;28;20025;-75
2021/04/02 12:48:11;;;;;;;8.13;2.00;;;12.10;66.20;;;;;;5055490;28;20029;-75
2021/04/02 12:50:37;;;;;;;6.60;1.83;;;12.10;67.30;;;;;;5054865;28;20021;-76